sensor_id;sensor_type;location;lat;lon;timestamp;pressure;altitude;pressure_sealevel;temperature
42119;BMP280;27783;42.782;23.274;2023-08-08T00:02:24;95398.66;;;15.75
42119;BMP280;27783;42.782;23.274;2023-08-08T00:04:50;95400.81;;;15.64
42119;BMP280;27783;42.782;23.274;2023-08-08T00:07:18;95403.47;;;15.80
42119;BMP280;27783;42.782;23.274;2023-08-08T00:09:44;95402.63;;;15.67
42119;BMP280;27783;42.782;23.274;2023-08-08T00:12:10;95391.75;;;15.62
42119;BMP280;27783;42.782;23.274;2023-08-08T00:14:43;95401.72;;;15.58
42119;BMP280;27783;42.782;23.274;2023-08-08T00:17:09;95402.38;;;15.62
42119;BMP280;27783;42.782;23.274;2023-08-08T00:19:36;95402.97;;;15.53
42119;BMP280;27783;42.782;23.274;2023-08-08T00:22:06;95407.69;;;15.62
42119;BMP280;27783;42.782;23.274;2023-08-08T00:24:32;95408.44;;;15.62
42119;BMP280;27783;42.782;23.274;2023-08-08T00:26:58;95408.59;;;15.71
42119;BMP280;27783;42.782;23.274;2023-08-08T00:29:24;95422.56;;;15.59
42119;BMP280;27783;42.782;23.274;2023-08-08T00:31:51;95420.66;;;15.60
42119;BMP280;27783;42.782;23.274;2023-08-08T00:34:18;95418.84;;;15.72
42119;BMP280;27783;42.782;23.274;2023-08-08T00:36:44;95420.22;;;15.61
42119;BMP280;27783;42.782;23.274;2023-08-08T00:39:31;95422.22;;;15.57
42119;BMP280;27783;42.782;23.274;2023-08-08T00:41:57;95414.84;;;15.49
42119;BMP280;27783;42.782;23.274;2023-08-08T00:44:25;95418.72;;;15.45
42119;BMP280;27783;42.782;23.274;2023-08-08T00:46:52;95424.72;;;15.49
42119;BMP280;27783;42.782;23.274;2023-08-08T00:49:18;95423.44;;;15.37
42119;BMP280;27783;42.782;23.274;2023-08-08T00:51:53;95427.84;;;15.28
42119;BMP280;27783;42.782;23.274;2023-08-08T00:54:21;95429.31;;;15.14
42119;BMP280;27783;42.782;23.274;2023-08-08T00:56:48;95433.03;;;15.16
42119;BMP280;27783;42.782;23.274;2023-08-08T00:59:15;95429.47;;;15.07
42119;BMP280;27783;42.782;23.274;2023-08-08T01:01:43;95440.63;;;14.99
42119;BMP280;27783;42.782;23.274;2023-08-08T01:04:09;95443.09;;;14.90
42119;BMP280;27783;42.782;23.274;2023-08-08T01:06:43;95445.09;;;14.83
42119;BMP280;27783;42.782;23.274;2023-08-08T01:09:23;95450.41;;;14.83
42119;BMP280;27783;42.782;23.274;2023-08-08T01:11:50;95454.28;;;14.78
42119;BMP280;27783;42.782;23.274;2023-08-08T01:14:17;95454.50;;;14.68
42119;BMP280;27783;42.782;23.274;2023-08-08T01:16:45;95456.19;;;14.78
42119;BMP280;27783;42.782;23.274;2023-08-08T01:19:34;95454.38;;;14.75
42119;BMP280;27783;42.782;23.274;2023-08-08T01:22:06;95462.59;;;14.80
42119;BMP280;27783;42.782;23.274;2023-08-08T01:24:34;95451.84;;;14.68
42119;BMP280;27783;42.782;23.274;2023-08-08T01:27:03;95454.50;;;14.68
42119;BMP280;27783;42.782;23.274;2023-08-08T01:29:30;95457.63;;;14.63
42119;BMP280;27783;42.782;23.274;2023-08-08T01:31:59;95466.47;;;14.57
42119;BMP280;27783;42.782;23.274;2023-08-08T01:34:24;95475.38;;;14.66
42119;BMP280;27783;42.782;23.274;2023-08-08T01:36:59;95487.94;;;14.62
42119;BMP280;27783;42.782;23.274;2023-08-08T01:39:30;95489.13;;;14.61
42119;BMP280;27783;42.782;23.274;2023-08-08T01:41:58;95489.13;;;14.61
42119;BMP280;27783;42.782;23.274;2023-08-08T01:44:25;95485.47;;;14.74
42119;BMP280;27783;42.782;23.274;2023-08-08T01:46:53;95483.56;;;14.75
42119;BMP280;27783;42.782;23.274;2023-08-08T01:49:19;95498.66;;;14.78
42119;BMP280;27783;42.782;23.274;2023-08-08T01:51:46;95494.59;;;14.92
42119;BMP280;27783;42.782;23.274;2023-08-08T01:54:14;95489.06;;;14.83
42119;BMP280;27783;42.782;23.274;2023-08-08T01:56:41;95486.22;;;14.75
42119;BMP280;27783;42.782;23.274;2023-08-08T01:59:07;95485.53;;;14.71
42119;BMP280;27783;42.782;23.274;2023-08-08T02:01:34;95487.91;;;14.84
42119;BMP280;27783;42.782;23.274;2023-08-08T02:04:00;95494.69;;;14.85
42119;BMP280;27783;42.782;23.274;2023-08-08T02:06:25;95501.13;;;14.88
42119;BMP280;27783;42.782;23.274;2023-08-08T02:08:50;95497.66;;;14.91
42119;BMP280;27783;42.782;23.274;2023-08-08T02:11:17;95498.75;;;14.93
42119;BMP280;27783;42.782;23.274;2023-08-08T02:13:43;95511.69;;;14.91
42119;BMP280;27783;42.782;23.274;2023-08-08T02:16:09;95510.63;;;14.85
42119;BMP280;27783;42.782;23.274;2023-08-08T02:18:35;95512.72;;;14.97
42119;BMP280;27783;42.782;23.274;2023-08-08T02:21:14;95502.63;;;14.89
42119;BMP280;27783;42.782;23.274;2023-08-08T02:23:41;95508.31;;;14.87
42119;BMP280;27783;42.782;23.274;2023-08-08T02:26:27;95513.63;;;14.87
42119;BMP280;27783;42.782;23.274;2023-08-08T02:28:55;95521.34;;;15.01
42119;BMP280;27783;42.782;23.274;2023-08-08T02:31:21;95515.50;;;14.90
42119;BMP280;27783;42.782;23.274;2023-08-08T02:33:50;95515.53;;;14.87
42119;BMP280;27783;42.782;23.274;2023-08-08T02:36:18;95517.56;;;14.80
42119;BMP280;27783;42.782;23.274;2023-08-08T02:38:44;95509.47;;;14.86
42119;BMP280;27783;42.782;23.274;2023-08-08T02:41:10;95527.06;;;15.00
42119;BMP280;27783;42.782;23.274;2023-08-08T02:43:37;95536.47;;;15.04
42119;BMP280;27783;42.782;23.274;2023-08-08T02:46:04;95528.97;;;14.99
42119;BMP280;27783;42.782;23.274;2023-08-08T02:48:32;95511.59;;;14.95
42119;BMP280;27783;42.782;23.274;2023-08-08T02:50:58;95513.25;;;14.89
42119;BMP280;27783;42.782;23.274;2023-08-08T02:53:33;95513.09;;;14.96
42119;BMP280;27783;42.782;23.274;2023-08-08T02:55:58;95524.06;;;14.98
42119;BMP280;27783;42.782;23.274;2023-08-08T02:58:30;95533.88;;;15.01
42119;BMP280;27783;42.782;23.274;2023-08-08T03:00:55;95544.13;;;14.99
42119;BMP280;27783;42.782;23.274;2023-08-08T03:03:21;95538.22;;;14.91
42119;BMP280;27783;42.782;23.274;2023-08-08T03:05:48;95541.97;;;14.94
42119;BMP280;27783;42.782;23.274;2023-08-08T03:08:13;95545.78;;;14.93
42119;BMP280;27783;42.782;23.274;2023-08-08T03:10:38;95550.41;;;14.89
42119;BMP280;27783;42.782;23.274;2023-08-08T03:13:05;95544.25;;;14.92
42119;BMP280;27783;42.782;23.274;2023-08-08T03:15:33;95549.56;;;14.92
42119;BMP280;27783;42.782;23.274;2023-08-08T03:17:58;95551.03;;;14.96
42119;BMP280;27783;42.782;23.274;2023-08-08T03:20:24;95562.31;;;15.00
42119;BMP280;27783;42.782;23.274;2023-08-08T03:22:50;95573.28;;;15.02
42119;BMP280;27783;42.782;23.274;2023-08-08T03:25:15;95560.34;;;15.04
42119;BMP280;27783;42.782;23.274;2023-08-08T03:27:43;95551.56;;;15.07
42119;BMP280;27783;42.782;23.274;2023-08-08T03:30:09;95542.66;;;14.98
42119;BMP280;27783;42.782;23.274;2023-08-08T03:32:34;95557.13;;;14.93
42119;BMP280;27783;42.782;23.274;2023-08-08T03:35:02;95551.22;;;15.05
42119;BMP280;27783;42.782;23.274;2023-08-08T03:37:41;95560.34;;;15.04
42119;BMP280;27783;42.782;23.274;2023-08-08T03:40:07;95559.19;;;15.05
42119;BMP280;27783;42.782;23.274;2023-08-08T03:42:37;95562.81;;;15.14
42119;BMP280;27783;42.782;23.274;2023-08-08T03:45:04;95572.81;;;15.07
42119;BMP280;27783;42.782;23.274;2023-08-08T03:47:42;95575.94;;;15.02
42119;BMP280;27783;42.782;23.274;2023-08-08T03:50:09;95578.13;;;15.07
42119;BMP280;27783;42.782;23.274;2023-08-08T03:52:35;95566.00;;;15.06
42119;BMP280;27783;42.782;23.274;2023-08-08T03:55:07;95561.09;;;15.04
42119;BMP280;27783;42.782;23.274;2023-08-08T03:57:35;95575.78;;;15.09
42119;BMP280;27783;42.782;23.274;2023-08-08T04:00:03;95581.22;;;15.02
42119;BMP280;27783;42.782;23.274;2023-08-08T04:02:30;95590.44;;;14.98
42119;BMP280;27783;42.782;23.274;2023-08-08T04:04:57;95592.66;;;14.99
42119;BMP280;27783;42.782;23.274;2023-08-08T04:07:24;95603.50;;;14.85
42119;BMP280;27783;42.782;23.274;2023-08-08T04:09:49;95596.41;;;14.79
42119;BMP280;27783;42.782;23.274;2023-08-08T04:12:15;95604.38;;;14.79
42119;BMP280;27783;42.782;23.274;2023-08-08T04:14:41;95600.56;;;14.80
42119;BMP280;27783;42.782;23.274;2023-08-08T04:17:09;95603.50;;;14.85
42119;BMP280;27783;42.782;23.274;2023-08-08T04:19:35;95613.69;;;14.90
42119;BMP280;27783;42.782;23.274;2023-08-08T04:22:02;95614.47;;;14.87
42119;BMP280;27783;42.782;23.274;2023-08-08T04:24:28;95622.34;;;14.94
42119;BMP280;27783;42.782;23.274;2023-08-08T04:26:54;95619.91;;;15.03
42119;BMP280;27783;42.782;23.274;2023-08-08T04:29:21;95630.91;;;15.01
42119;BMP280;27783;42.782;23.274;2023-08-08T04:31:46;95629.94;;;14.92
42119;BMP280;27783;42.782;23.274;2023-08-08T04:34:14;95635.63;;;14.94
42119;BMP280;27783;42.782;23.274;2023-08-08T04:36:45;95617.69;;;14.98
42119;BMP280;27783;42.782;23.274;2023-08-08T04:39:11;95597.97;;;14.99
42119;BMP280;27783;42.782;23.274;2023-08-08T04:41:37;95599.06;;;15.01
42119;BMP280;27783;42.782;23.274;2023-08-08T04:44:05;95598.41;;;14.98
42119;BMP280;27783;42.782;23.274;2023-08-08T04:46:32;95601.88;;;15.14
42119;BMP280;27783;42.782;23.274;2023-08-08T04:48:57;95623.19;;;15.29
42119;BMP280;27783;42.782;23.274;2023-08-08T04:51:23;95622.38;;;15.32
42119;BMP280;27783;42.782;23.274;2023-08-08T04:53:50;95617.19;;;15.44
42119;BMP280;27783;42.782;23.274;2023-08-08T04:56:15;95628.38;;;15.36
42119;BMP280;27783;42.782;23.274;2023-08-08T04:58:42;95628.09;;;15.50
42119;BMP280;27783;42.782;23.274;2023-08-08T05:01:08;95644.31;;;15.55
42119;BMP280;27783;42.782;23.274;2023-08-08T05:03:37;95656.72;;;15.80
42119;BMP280;27783;42.782;23.274;2023-08-08T05:06:04;95668.00;;;15.84
42119;BMP280;27783;42.782;23.274;2023-08-08T05:08:31;95671.22;;;15.95
42119;BMP280;27783;42.782;23.274;2023-08-08T05:10:58;95684.13;;;15.96
42119;BMP280;27783;42.782;23.274;2023-08-08T05:13:38;95689.41;;;16.15
42119;BMP280;27783;42.782;23.274;2023-08-08T05:16:05;95683.50;;;16.42
42119;BMP280;27783;42.782;23.274;2023-08-08T05:18:34;95684.94;;;16.93
42119;BMP280;27783;42.782;23.274;2023-08-08T05:21:00;95680.13;;;16.88
42119;BMP280;27783;42.782;23.274;2023-08-08T05:23:27;95682.16;;;16.50
42119;BMP280;27783;42.782;23.274;2023-08-08T05:25:52;95668.91;;;16.31
42119;BMP280;27783;42.782;23.274;2023-08-08T05:28:19;95676.41;;;16.36
42119;BMP280;27783;42.782;23.274;2023-08-08T05:30:46;95689.22;;;16.41
42119;BMP280;27783;42.782;23.274;2023-08-08T05:33:13;95692.19;;;16.43
42119;BMP280;27783;42.782;23.274;2023-08-08T05:35:39;95700.94;;;16.09
42119;BMP280;27783;42.782;23.274;2023-08-08T05:38:05;95714.91;;;16.47
42119;BMP280;27783;42.782;23.274;2023-08-08T05:40:30;95717.19;;;16.49
42119;BMP280;27783;42.782;23.274;2023-08-08T05:42:57;95718.31;;;16.32
42119;BMP280;27783;42.782;23.274;2023-08-08T05:45:23;95721.50;;;16.58
42119;BMP280;27783;42.782;23.274;2023-08-08T05:47:49;95722.31;;;16.90
42119;BMP280;27783;42.782;23.274;2023-08-08T05:50:15;95721.13;;;16.41
42119;BMP280;27783;42.782;23.274;2023-08-08T05:52:42;95725.19;;;16.64
42119;BMP280;27783;42.782;23.274;2023-08-08T05:55:07;95721.13;;;16.25
42119;BMP280;27783;42.782;23.274;2023-08-08T05:57:35;95724.78;;;16.66
42119;BMP280;27783;42.782;23.274;2023-08-08T06:00:03;95734.97;;;17.17
42119;BMP280;27783;42.782;23.274;2023-08-08T06:02:33;95727.13;;;17.41
42119;BMP280;27783;42.782;23.274;2023-08-08T06:05:01;95731.78;;;17.65
42119;BMP280;27783;42.782;23.274;2023-08-08T06:07:26;95735.53;;;17.40
42119;BMP280;27783;42.782;23.274;2023-08-08T06:09:52;95724.16;;;17.51
42119;BMP280;27783;42.782;23.274;2023-08-08T06:12:19;95728.91;;;17.60
42119;BMP280;27783;42.782;23.274;2023-08-08T06:14:45;95730.78;;;17.75
42119;BMP280;27783;42.782;23.274;2023-08-08T06:17:19;95724.97;;;18.07
42119;BMP280;27783;42.782;23.274;2023-08-08T06:19:46;95728.63;;;17.98
42119;BMP280;27783;42.782;23.274;2023-08-08T06:22:12;95728.72;;;18.34
42119;BMP280;27783;42.782;23.274;2023-08-08T06:24:38;95732.44;;;18.24
42119;BMP280;27783;42.782;23.274;2023-08-08T06:27:05;95717.34;;;18.46
42119;BMP280;27783;42.782;23.274;2023-08-08T06:29:30;95730.63;;;18.21
42119;BMP280;27783;42.782;23.274;2023-08-08T06:31:58;95723.56;;;18.67
42119;BMP280;27783;42.782;23.274;2023-08-08T06:34:26;95719.56;;;19.32
42119;BMP280;27783;42.782;23.274;2023-08-08T06:36:52;95715.03;;;18.96
42119;BMP280;27783;42.782;23.274;2023-08-08T06:39:18;95722.06;;;18.90
42119;BMP280;27783;42.782;23.274;2023-08-08T06:41:48;95724.75;;;18.78
42119;BMP280;27783;42.782;23.274;2023-08-08T06:44:13;95717.78;;;19.05
42119;BMP280;27783;42.782;23.274;2023-08-08T06:46:38;95727.41;;;18.90
42119;BMP280;27783;42.782;23.274;2023-08-08T06:49:06;95720.53;;;19.14
42119;BMP280;27783;42.782;23.274;2023-08-08T06:51:33;95719.03;;;19.25
42119;BMP280;27783;42.782;23.274;2023-08-08T06:53:59;95728.91;;;18.91
42119;BMP280;27783;42.782;23.274;2023-08-08T06:56:25;95734.66;;;18.78
42119;BMP280;27783;42.782;23.274;2023-08-08T06:58:53;95724.31;;;18.92
42119;BMP280;27783;42.782;23.274;2023-08-08T07:01:19;95724.72;;;18.90
42119;BMP280;27783;42.782;23.274;2023-08-08T07:03:48;95715.81;;;19.18
42119;BMP280;27783;42.782;23.274;2023-08-08T07:06:17;95721.59;;;20.15
42119;BMP280;27783;42.782;23.274;2023-08-08T07:08:42;95718.13;;;19.52
42119;BMP280;27783;42.782;23.274;2023-08-08T07:11:08;95714.97;;;19.66
42119;BMP280;27783;42.782;23.274;2023-08-08T07:13:34;95718.59;;;19.26
42119;BMP280;27783;42.782;23.274;2023-08-08T07:16:00;95711.66;;;19.29
42119;BMP280;27783;42.782;23.274;2023-08-08T07:18:26;95711.91;;;19.55
42119;BMP280;27783;42.782;23.274;2023-08-08T07:20:55;95711.25;;;20.05
42119;BMP280;27783;42.782;23.274;2023-08-08T07:23:22;95710.31;;;19.57
42119;BMP280;27783;42.782;23.274;2023-08-08T07:25:48;95711.38;;;19.81
42119;BMP280;27783;42.782;23.274;2023-08-08T07:28:22;95711.94;;;19.76
42119;BMP280;27783;42.782;23.274;2023-08-08T07:30:47;95711.44;;;19.23
42119;BMP280;27783;42.782;23.274;2023-08-08T07:33:13;95708.31;;;19.70
42119;BMP280;27783;42.782;23.274;2023-08-08T07:35:39;95705.22;;;19.92
42119;BMP280;27783;42.782;23.274;2023-08-08T07:38:05;95710.41;;;20.08
42119;BMP280;27783;42.782;23.274;2023-08-08T07:40:34;95714.25;;;20.28
42119;BMP280;27783;42.782;23.274;2023-08-08T07:43:01;95706.91;;;20.40
42119;BMP280;27783;42.782;23.274;2023-08-08T07:45:28;95709.44;;;20.73
42119;BMP280;27783;42.782;23.274;2023-08-08T07:47:55;95709.06;;;20.54
42119;BMP280;27783;42.782;23.274;2023-08-08T07:50:22;95708.25;;;20.45
42119;BMP280;27783;42.782;23.274;2023-08-08T07:52:50;95710.66;;;20.52
42119;BMP280;27783;42.782;23.274;2023-08-08T07:55:16;95706.41;;;20.63
42119;BMP280;27783;42.782;23.274;2023-08-08T07:57:42;95708.28;;;21.30
42119;BMP280;27783;42.782;23.274;2023-08-08T08:00:09;95707.66;;;21.09
42119;BMP280;27783;42.782;23.274;2023-08-08T08:02:42;95713.88;;;20.68
42119;BMP280;27783;42.782;23.274;2023-08-08T08:05:08;95713.09;;;20.58
42119;BMP280;27783;42.782;23.274;2023-08-08T08:07:36;95701.13;;;21.19
42119;BMP280;27783;42.782;23.274;2023-08-08T08:10:08;95708.84;;;21.08
42119;BMP280;27783;42.782;23.274;2023-08-08T08:12:35;95704.75;;;21.33
42119;BMP280;27783;42.782;23.274;2023-08-08T08:15:01;95693.56;;;21.26
42119;BMP280;27783;42.782;23.274;2023-08-08T08:17:29;95696.94;;;21.18
42119;BMP280;27783;42.782;23.274;2023-08-08T08:19:54;95698.16;;;21.25
42119;BMP280;27783;42.782;23.274;2023-08-08T08:22:20;95700.75;;;22.07
42119;BMP280;27783;42.782;23.274;2023-08-08T08:24:48;95696.72;;;21.51
42119;BMP280;27783;42.782;23.274;2023-08-08T08:27:14;95697.75;;;21.70
42119;BMP280;27783;42.782;23.274;2023-08-08T08:29:42;95710.13;;;21.51
42119;BMP280;27783;42.782;23.274;2023-08-08T08:32:13;95715.34;;;21.71
42119;BMP280;27783;42.782;23.274;2023-08-08T08:34:40;95720.44;;;22.13
42119;BMP280;27783;42.782;23.274;2023-08-08T08:37:27;95716.84;;;21.72
42119;BMP280;27783;42.782;23.274;2023-08-08T08:39:52;95714.59;;;22.41
42119;BMP280;27783;42.782;23.274;2023-08-08T08:42:19;95705.38;;;22.24
42119;BMP280;27783;42.782;23.274;2023-08-08T08:44:45;95711.94;;;21.80
42119;BMP280;27783;42.782;23.274;2023-08-08T08:47:27;95707.34;;;21.98
42119;BMP280;27783;42.782;23.274;2023-08-08T08:50:17;95699.97;;;22.91
42119;BMP280;27783;42.782;23.274;2023-08-08T08:52:44;95710.13;;;21.77
42119;BMP280;27783;42.782;23.274;2023-08-08T08:55:11;95711.03;;;21.65
42119;BMP280;27783;42.782;23.274;2023-08-08T08:57:41;95708.66;;;21.76
42119;BMP280;27783;42.782;23.274;2023-08-08T09:00:09;95708.66;;;21.93
42119;BMP280;27783;42.782;23.274;2023-08-08T09:02:37;95713.44;;;22.07
42119;BMP280;27783;42.782;23.274;2023-08-08T09:05:04;95685.91;;;22.55
42119;BMP280;27783;42.782;23.274;2023-08-08T09:07:35;95700.50;;;22.63
42119;BMP280;27783;42.782;23.274;2023-08-08T09:10:02;95704.25;;;22.97
42119;BMP280;27783;42.782;23.274;2023-08-08T09:12:30;95703.16;;;22.72
42119;BMP280;27783;42.782;23.274;2023-08-08T09:14:57;95703.41;;;22.34
42119;BMP280;27783;42.782;23.274;2023-08-08T09:17:25;95705.69;;;23.38
42119;BMP280;27783;42.782;23.274;2023-08-08T09:19:53;95702.59;;;23.00
42119;BMP280;27783;42.782;23.274;2023-08-08T09:22:22;95694.97;;;22.98
42119;BMP280;27783;42.782;23.274;2023-08-08T09:25:01;95701.91;;;22.90
42119;BMP280;27783;42.782;23.274;2023-08-08T09:27:29;95697.75;;;22.23
42119;BMP280;27783;42.782;23.274;2023-08-08T09:29:56;95693.94;;;22.64
42119;BMP280;27783;42.782;23.274;2023-08-08T09:32:21;95701.19;;;23.13
42119;BMP280;27783;42.782;23.274;2023-08-08T09:34:47;95702.50;;;23.26
42119;BMP280;27783;42.782;23.274;2023-08-08T09:37:12;95698.59;;;23.27
42119;BMP280;27783;42.782;23.274;2023-08-08T09:39:42;95686.25;;;24.03
42119;BMP280;27783;42.782;23.274;2023-08-08T09:42:08;95694.38;;;23.03
42119;BMP280;27783;42.782;23.274;2023-08-08T09:44:46;95704.41;;;23.34
42119;BMP280;27783;42.782;23.274;2023-08-08T09:47:12;95699.47;;;23.01
42119;BMP280;27783;42.782;23.274;2023-08-08T09:49:40;95704.63;;;23.13
42119;BMP280;27783;42.782;23.274;2023-08-08T09:52:11;95696.06;;;23.69
42119;BMP280;27783;42.782;23.274;2023-08-08T09:54:39;95683.31;;;23.33
42119;BMP280;27783;42.782;23.274;2023-08-08T09:57:07;95680.66;;;22.92
42119;BMP280;27783;42.782;23.274;2023-08-08T09:59:34;95680.53;;;23.27
42119;BMP280;27783;42.782;23.274;2023-08-08T10:02:01;95678.38;;;23.77
42119;BMP280;27783;42.782;23.274;2023-08-08T10:04:27;95683.94;;;23.51
42119;BMP280;27783;42.782;23.274;2023-08-08T10:06:53;95681.41;;;23.70
42119;BMP280;27783;42.782;23.274;2023-08-08T10:09:18;95676.19;;;24.04
42119;BMP280;27783;42.782;23.274;2023-08-08T10:11:45;95678.38;;;24.42
42119;BMP280;27783;42.782;23.274;2023-08-08T10:14:11;95685.66;;;23.62
42119;BMP280;27783;42.782;23.274;2023-08-08T10:16:39;95690.34;;;23.76
42119;BMP280;27783;42.782;23.274;2023-08-08T10:19:06;95686.34;;;23.49
42119;BMP280;27783;42.782;23.274;2023-08-08T10:21:34;95683.63;;;23.94
42119;BMP280;27783;42.782;23.274;2023-08-08T10:24:09;95683.66;;;24.51
42119;BMP280;27783;42.782;23.274;2023-08-08T10:26:58;95684.84;;;24.07
42119;BMP280;27783;42.782;23.274;2023-08-08T10:29:26;95685.53;;;23.80
42119;BMP280;27783;42.782;23.274;2023-08-08T10:31:53;95681.88;;;24.06
42119;BMP280;27783;42.782;23.274;2023-08-08T10:34:20;95683.97;;;24.53
42119;BMP280;27783;42.782;23.274;2023-08-08T10:36:50;95686.47;;;24.42
42119;BMP280;27783;42.782;23.274;2023-08-08T10:39:18;95681.38;;;24.58
42119;BMP280;27783;42.782;23.274;2023-08-08T10:41:45;95680.25;;;24.64
42119;BMP280;27783;42.782;23.274;2023-08-08T10:44:11;95683.00;;;24.41
42119;BMP280;27783;42.782;23.274;2023-08-08T10:46:40;95683.31;;;24.57
42119;BMP280;27783;42.782;23.274;2023-08-08T10:49:06;95679.94;;;24.76
42119;BMP280;27783;42.782;23.274;2023-08-08T10:51:42;95679.13;;;24.28
42119;BMP280;27783;42.782;23.274;2023-08-08T10:56:38;95667.88;;;25.39
42119;BMP280;27783;42.782;23.274;2023-08-08T10:59:23;95667.41;;;24.73
42119;BMP280;27783;42.782;23.274;2023-08-08T11:01:51;95663.94;;;24.87
42119;BMP280;27783;42.782;23.274;2023-08-08T11:04:22;95675.41;;;24.54
42119;BMP280;27783;42.782;23.274;2023-08-08T11:06:53;95659.19;;;25.49
42119;BMP280;27783;42.782;23.274;2023-08-08T11:09:19;95652.91;;;25.38
42119;BMP280;27783;42.782;23.274;2023-08-08T11:11:45;95655.50;;;24.09
42119;BMP280;27783;42.782;23.274;2023-08-08T11:14:12;95662.94;;;25.18
42119;BMP280;27783;42.782;23.274;2023-08-08T11:16:38;95654.81;;;25.71
42119;BMP280;27783;42.782;23.274;2023-08-08T11:19:04;95660.72;;;25.75
42119;BMP280;27783;42.782;23.274;2023-08-08T11:21:29;95653.38;;;25.56
42119;BMP280;27783;42.782;23.274;2023-08-08T11:23:55;95646.94;;;24.81
42119;BMP280;27783;42.782;23.274;2023-08-08T11:26:20;95652.63;;;25.17
42119;BMP280;27783;42.782;23.274;2023-08-08T11:28:52;95660.13;;;25.13
42119;BMP280;27783;42.782;23.274;2023-08-08T11:31:19;95648.44;;;25.35
42119;BMP280;27783;42.782;23.274;2023-08-08T11:33:47;95652.69;;;24.89
42119;BMP280;27783;42.782;23.274;2023-08-08T11:36:14;95656.16;;;24.05
42119;BMP280;27783;42.782;23.274;2023-08-08T11:38:40;95657.03;;;24.53
42119;BMP280;27783;42.782;23.274;2023-08-08T11:41:11;95652.72;;;24.74
42119;BMP280;27783;42.782;23.274;2023-08-08T11:43:38;95654.59;;;24.69
42119;BMP280;27783;42.782;23.274;2023-08-08T11:46:08;95649.31;;;24.93
42119;BMP280;27783;42.782;23.274;2023-08-08T11:48:37;95642.28;;;24.82
42119;BMP280;27783;42.782;23.274;2023-08-08T11:51:07;95648.31;;;24.91
42119;BMP280;27783;42.782;23.274;2023-08-08T11:53:33;95635.53;;;26.03
42119;BMP280;27783;42.782;23.274;2023-08-08T11:56:03;95634.41;;;25.51
42119;BMP280;27783;42.782;23.274;2023-08-08T11:58:30;95635.78;;;25.80
42119;BMP280;27783;42.782;23.274;2023-08-08T12:00:56;95628.34;;;25.36
42119;BMP280;27783;42.782;23.274;2023-08-08T12:03:25;95623.44;;;25.01
42119;BMP280;27783;42.782;23.274;2023-08-08T12:05:51;95620.31;;;26.05
42119;BMP280;27783;42.782;23.274;2023-08-08T12:08:20;95616.00;;;24.96
42119;BMP280;27783;42.782;23.274;2023-08-08T12:10:50;95612.75;;;25.26
42119;BMP280;27783;42.782;23.274;2023-08-08T12:13:23;95611.41;;;25.36
42119;BMP280;27783;42.782;23.274;2023-08-08T12:15:52;95602.47;;;24.77
42119;BMP280;27783;42.782;23.274;2023-08-08T12:18:18;95597.84;;;26.19
42119;BMP280;27783;42.782;23.274;2023-08-08T12:20:45;95592.50;;;25.99
42119;BMP280;27783;42.782;23.274;2023-08-08T12:23:12;95607.38;;;25.90
42119;BMP280;27783;42.782;23.274;2023-08-08T12:25:38;95597.38;;;25.95
42119;BMP280;27783;42.782;23.274;2023-08-08T12:28:05;95586.34;;;26.24
42119;BMP280;27783;42.782;23.274;2023-08-08T12:30:31;95595.44;;;25.76
42119;BMP280;27783;42.782;23.274;2023-08-08T12:32:57;95590.00;;;25.32
42119;BMP280;27783;42.782;23.274;2023-08-08T12:35:24;95601.69;;;24.90
42119;BMP280;27783;42.782;23.274;2023-08-08T12:37:52;95589.25;;;24.31
42119;BMP280;27783;42.782;23.274;2023-08-08T12:40:17;95587.09;;;25.36
42119;BMP280;27783;42.782;23.274;2023-08-08T12:42:43;95586.44;;;25.85
42119;BMP280;27783;42.782;23.274;2023-08-08T12:45:08;95574.91;;;25.65
42119;BMP280;27783;42.782;23.274;2023-08-08T12:47:36;95584.69;;;25.38
42119;BMP280;27783;42.782;23.274;2023-08-08T12:50:06;95577.91;;;25.67
42119;BMP280;27783;42.782;23.274;2023-08-08T12:52:31;95581.81;;;25.22
42119;BMP280;27783;42.782;23.274;2023-08-08T12:54:57;95571.16;;;25.57
42119;BMP280;27783;42.782;23.274;2023-08-08T12:57:22;95569.00;;;26.71
42119;BMP280;27783;42.782;23.274;2023-08-08T12:59:47;95559.16;;;26.07
42119;BMP280;27783;42.782;23.274;2023-08-08T13:02:13;95576.06;;;25.78
42119;BMP280;27783;42.782;23.274;2023-08-08T13:04:40;95571.06;;;25.27
42119;BMP280;27783;42.782;23.274;2023-08-08T13:07:06;95573.31;;;25.28
42119;BMP280;27783;42.782;23.274;2023-08-08T13:09:32;95574.25;;;25.70
42119;BMP280;27783;42.782;23.274;2023-08-08T13:11:58;95564.31;;;25.61
42119;BMP280;27783;42.782;23.274;2023-08-08T13:14:23;95568.63;;;26.23
42119;BMP280;27783;42.782;23.274;2023-08-08T13:16:48;95566.53;;;26.37
42119;BMP280;27783;42.782;23.274;2023-08-08T13:19:15;95559.53;;;26.20
42119;BMP280;27783;42.782;23.274;2023-08-08T13:21:44;95564.53;;;26.02
42119;BMP280;27783;42.782;23.274;2023-08-08T13:24:10;95566.19;;;25.50
42119;BMP280;27783;42.782;23.274;2023-08-08T13:26:38;95553.38;;;26.20
42119;BMP280;27783;42.782;23.274;2023-08-08T13:29:04;95557.81;;;25.29
42119;BMP280;27783;42.782;23.274;2023-08-08T13:31:31;95557.75;;;25.43
42119;BMP280;27783;42.782;23.274;2023-08-08T13:33:58;95560.44;;;25.43
42119;BMP280;27783;42.782;23.274;2023-08-08T13:36:24;95550.41;;;25.24
42119;BMP280;27783;42.782;23.274;2023-08-08T13:38:49;95559.81;;;25.53
42119;BMP280;27783;42.782;23.274;2023-08-08T13:41:15;95550.66;;;25.06
42119;BMP280;27783;42.782;23.274;2023-08-08T13:46:09;95543.34;;;26.25
42119;BMP280;27783;42.782;23.274;2023-08-08T13:48:35;95555.13;;;25.73
42119;BMP280;27783;42.782;23.274;2023-08-08T13:51:01;95550.47;;;25.98
42119;BMP280;27783;42.782;23.274;2023-08-08T13:53:27;95546.72;;;26.45
42119;BMP280;27783;42.782;23.274;2023-08-08T13:55:53;95550.66;;;25.90
42119;BMP280;27783;42.782;23.274;2023-08-08T13:58:20;95554.31;;;25.04
42119;BMP280;27783;42.782;23.274;2023-08-08T14:00:49;95563.59;;;25.61
42119;BMP280;27783;42.782;23.274;2023-08-08T14:03:15;95556.44;;;27.03
42119;BMP280;27783;42.782;23.274;2023-08-08T14:05:40;95556.88;;;26.56